Roslyn, South Dakota
Current Conditions -  °F | °C
As of 5:53 AM on Wednesday 28 Jan 2015 (Local Time) from KATY Reporting Station
Clear Clear  
Wind Chill: -5°   Ceiling: Unl
Heat Index:   Visibility: 10mi
Dew Point: -2°   Wind: 12mph
Humidity: 88%   Direction: 160°SSE
Pressure: 29.75"   Gusts: NA
Location:  45.5°N, 97.49°W
Report Text: KATY 281153Z AUTO 16010KT 10SM CLR 00/M02 A2975 RMK AO2 SLP093 T00001017 10011 20000 56018
Loading
Personal Weather Stations






























Interactive Weather Map New forecast layout! Learn more

10-Day Weather Forecast

Advertisements
Track Severe Weather on mobile